sensor_id;sensor_type;location;lat;lon;timestamp;temperature;humidity
74742;SHT30;76291;48.288;16.314;2024-03-02T00:01:01;7.8;84.7
74742;SHT30;76291;48.288;16.314;2024-03-02T00:02:02;7.8;84.6
74742;SHT30;76291;48.288;16.314;2024-03-02T00:03:01;7.8;85.0
74742;SHT30;76291;48.288;16.314;2024-03-02T00:04:02;7.8;85.0
74742;SHT30;76291;48.288;16.314;2024-03-02T00:05:01;7.8;85.1
74742;SHT30;76291;48.288;16.314;2024-03-02T00:06:01;7.9;85.0
74742;SHT30;76291;48.288;16.314;2024-03-02T00:07:01;7.9;84.7
74742;SHT30;76291;48.288;16.314;2024-03-02T00:08:01;7.8;84.9
74742;SHT30;76291;48.288;16.314;2024-03-02T00:09:01;7.8;85.0
74742;SHT30;76291;48.288;16.314;2024-03-02T00:10:01;7.9;84.7
74742;SHT30;76291;48.288;16.314;2024-03-02T00:12:04;7.9;84.3
74742;SHT30;76291;48.288;16.314;2024-03-02T00:13:01;7.9;84.2
74742;SHT30;76291;48.288;16.314;2024-03-02T00:14:01;7.8;84.2
74742;SHT30;76291;48.288;16.314;2024-03-02T00:15:01;7.9;84.1
74742;SHT30;76291;48.288;16.314;2024-03-02T00:16:01;7.8;84.1
74742;SHT30;76291;48.288;16.314;2024-03-02T00:17:01;7.8;84.3
74742;SHT30;76291;48.288;16.314;2024-03-02T00:18:01;7.8;84.1
74742;SHT30;76291;48.288;16.314;2024-03-02T00:19:01;7.8;84.4
74742;SHT30;76291;48.288;16.314;2024-03-02T00:20:01;7.8;84.4
74742;SHT30;76291;48.288;16.314;2024-03-02T00:21:01;7.7;84.4
74742;SHT30;76291;48.288;16.314;2024-03-02T00:22:01;7.7;84.4
74742;SHT30;76291;48.288;16.314;2024-03-02T00:23:04;7.7;84.2
74742;SHT30;76291;48.288;16.314;2024-03-02T00:24:01;7.8;83.9
74742;SHT30;76291;48.288;16.314;2024-03-02T00:25:01;7.8;83.6
74742;SHT30;76291;48.288;16.314;2024-03-02T00:26:01;7.6;84.1
74742;SHT30;76291;48.288;16.314;2024-03-02T00:27:00;7.7;84.0
74742;SHT30;76291;48.288;16.314;2024-03-02T00:28:00;7.7;83.9
74742;SHT30;76291;48.288;16.314;2024-03-02T00:29:00;7.7;83.7
74742;SHT30;76291;48.288;16.314;2024-03-02T00:30:00;7.7;83.8
74742;SHT30;76291;48.288;16.314;2024-03-02T00:32:00;7.5;83.9
74742;SHT30;76291;48.288;16.314;2024-03-02T00:33:00;7.6;84.0
74742;SHT30;76291;48.288;16.314;2024-03-02T00:34:00;7.6;83.8
74742;SHT30;76291;48.288;16.314;2024-03-02T00:35:00;7.6;84.0
74742;SHT30;76291;48.288;16.314;2024-03-02T00:36:01;7.5;84.5
74742;SHT30;76291;48.288;16.314;2024-03-02T00:37:00;7.5;84.0
74742;SHT30;76291;48.288;16.314;2024-03-02T00:38:04;7.6;84.1
74742;SHT30;76291;48.288;16.314;2024-03-02T00:39:00;7.6;83.9
74742;SHT30;76291;48.288;16.314;2024-03-02T00:40:00;7.6;84.3
74742;SHT30;76291;48.288;16.314;2024-03-02T00:41:05;7.6;84.6
74742;SHT30;76291;48.288;16.314;2024-03-02T00:42:00;7.5;84.9
74742;SHT30;76291;48.288;16.314;2024-03-02T00:43:00;7.6;84.3
74742;SHT30;76291;48.288;16.314;2024-03-02T00:44:01;7.6;83.9
74742;SHT30;76291;48.288;16.314;2024-03-02T00:45:00;7.6;83.7
74742;SHT30;76291;48.288;16.314;2024-03-02T00:46:00;7.6;83.9
74742;SHT30;76291;48.288;16.314;2024-03-02T00:47:04;7.6;84.2
74742;SHT30;76291;48.288;16.314;2024-03-02T00:48:00;7.5;84.3
74742;SHT30;76291;48.288;16.314;2024-03-02T00:49:00;7.5;84.5
74742;SHT30;76291;48.288;16.314;2024-03-02T00:50:00;7.5;84.6
74742;SHT30;76291;48.288;16.314;2024-03-02T00:51:00;7.5;84.7
74742;SHT30;76291;48.288;16.314;2024-03-02T00:52:00;7.5;84.9
74742;SHT30;76291;48.288;16.314;2024-03-02T00:53:01;7.5;84.7
74742;SHT30;76291;48.288;16.314;2024-03-02T00:54:01;7.5;84.7
74742;SHT30;76291;48.288;16.314;2024-03-02T00:55:00;7.5;84.8
74742;SHT30;76291;48.288;16.314;2024-03-02T00:56:00;7.5;84.6
74742;SHT30;76291;48.288;16.314;2024-03-02T00:57:00;7.5;84.7
74742;SHT30;76291;48.288;16.314;2024-03-02T00:58:00;7.5;84.9
74742;SHT30;76291;48.288;16.314;2024-03-02T00:59:00;7.5;84.9
74742;SHT30;76291;48.288;16.314;2024-03-02T01:00:00;7.5;84.7
74742;SHT30;76291;48.288;16.314;2024-03-02T01:01:00;7.5;84.6
74742;SHT30;76291;48.288;16.314;2024-03-02T01:02:00;7.6;84.3
74742;SHT30;76291;48.288;16.314;2024-03-02T01:03:00;7.5;84.1
74742;SHT30;76291;48.288;16.314;2024-03-02T01:04:00;7.5;84.6
74742;SHT30;76291;48.288;16.314;2024-03-02T01:05:00;7.4;84.5
74742;SHT30;76291;48.288;16.314;2024-03-02T01:06:00;7.5;84.4
74742;SHT30;76291;48.288;16.314;2024-03-02T01:07:00;7.5;84.3
74742;SHT30;76291;48.288;16.314;2024-03-02T01:08:00;7.5;84.2
74742;SHT30;76291;48.288;16.314;2024-03-02T01:09:00;7.5;84.1
74742;SHT30;76291;48.288;16.314;2024-03-02T01:10:00;7.5;84.2
74742;SHT30;76291;48.288;16.314;2024-03-02T01:11:00;7.5;84.0
74742;SHT30;76291;48.288;16.314;2024-03-02T01:12:00;7.5;83.9
74742;SHT30;76291;48.288;16.314;2024-03-02T01:13:00;7.4;84.3
74742;SHT30;76291;48.288;16.314;2024-03-02T01:14:02;7.4;84.4
74742;SHT30;76291;48.288;16.314;2024-03-02T01:15:00;7.5;84.2
74742;SHT30;76291;48.288;16.314;2024-03-02T01:16:00;7.3;85.2
74742;SHT30;76291;48.288;16.314;2024-03-02T01:17:00;7.4;85.1
74742;SHT30;76291;48.288;16.314;2024-03-02T01:18:00;7.3;85.1
74742;SHT30;76291;48.288;16.314;2024-03-02T01:19:00;7.3;85.3
74742;SHT30;76291;48.288;16.314;2024-03-02T01:20:00;7.2;85.6
74742;SHT30;76291;48.288;16.314;2024-03-02T01:21:00;7.3;85.4
74742;SHT30;76291;48.288;16.314;2024-03-02T01:22:00;7.2;85.1
74742;SHT30;76291;48.288;16.314;2024-03-02T01:23:00;7.2;84.9
74742;SHT30;76291;48.288;16.314;2024-03-02T01:24:00;7.2;84.9
74742;SHT30;76291;48.288;16.314;2024-03-02T01:25:00;7.2;85.5
74742;SHT30;76291;48.288;16.314;2024-03-02T01:26:00;7.3;85.5
74742;SHT30;76291;48.288;16.314;2024-03-02T01:27:00;7.3;85.8
74742;SHT30;76291;48.288;16.314;2024-03-02T01:28:00;7.3;85.9
74742;SHT30;76291;48.288;16.314;2024-03-02T01:29:00;7.2;86.3
74742;SHT30;76291;48.288;16.314;2024-03-02T01:30:00;7.3;86.2
74742;SHT30;76291;48.288;16.314;2024-03-02T01:31:00;7.3;85.9
74742;SHT30;76291;48.288;16.314;2024-03-02T01:32:00;7.4;86.1
74742;SHT30;76291;48.288;16.314;2024-03-02T01:33:00;7.5;86.1
74742;SHT30;76291;48.288;16.314;2024-03-02T01:34:00;7.4;86.0
74742;SHT30;76291;48.288;16.314;2024-03-02T01:35:00;7.4;86.1
74742;SHT30;76291;48.288;16.314;2024-03-02T01:36:00;7.4;86.2
74742;SHT30;76291;48.288;16.314;2024-03-02T01:37:00;7.3;86.5
74742;SHT30;76291;48.288;16.314;2024-03-02T01:38:00;7.4;86.3
74742;SHT30;76291;48.288;16.314;2024-03-02T01:39:00;7.4;86.0
74742;SHT30;76291;48.288;16.314;2024-03-02T01:40:00;7.4;86.1
74742;SHT30;76291;48.288;16.314;2024-03-02T01:41:00;7.4;86.2
74742;SHT30;76291;48.288;16.314;2024-03-02T01:42:00;7.4;86.4
74742;SHT30;76291;48.288;16.314;2024-03-02T01:43:00;7.4;86.3
74742;SHT30;76291;48.288;16.314;2024-03-02T01:44:00;7.4;86.2
74742;SHT30;76291;48.288;16.314;2024-03-02T01:45:00;7.3;86.8
74742;SHT30;76291;48.288;16.314;2024-03-02T01:46:00;7.3;86.9
74742;SHT30;76291;48.288;16.314;2024-03-02T01:47:00;7.3;87.1
74742;SHT30;76291;48.288;16.314;2024-03-02T01:48:00;7.4;86.7
74742;SHT30;76291;48.288;16.314;2024-03-02T01:49:00;7.4;86.6
74742;SHT30;76291;48.288;16.314;2024-03-02T01:50:00;7.4;86.7
74742;SHT30;76291;48.288;16.314;2024-03-02T01:51:00;7.4;86.7
74742;SHT30;76291;48.288;16.314;2024-03-02T01:52:00;7.3;86.9
74742;SHT30;76291;48.288;16.314;2024-03-02T01:53:00;7.3;86.8
74742;SHT30;76291;48.288;16.314;2024-03-02T01:54:00;7.4;86.6
74742;SHT30;76291;48.288;16.314;2024-03-02T01:55:01;7.3;86.9
74742;SHT30;76291;48.288;16.314;2024-03-02T01:56:00;7.2;87.1
74742;SHT30;76291;48.288;16.314;2024-03-02T01:57:00;7.3;86.6
74742;SHT30;76291;48.288;16.314;2024-03-02T01:58:00;7.2;86.9
74742;SHT30;76291;48.288;16.314;2024-03-02T01:59:00;7.2;87.0
74742;SHT30;76291;48.288;16.314;2024-03-02T02:00:00;7.2;86.9
74742;SHT30;76291;48.288;16.314;2024-03-02T02:01:00;7.2;87.0
74742;SHT30;76291;48.288;16.314;2024-03-02T02:02:00;7.2;87.1
74742;SHT30;76291;48.288;16.314;2024-03-02T02:03:00;7.2;87.2
74742;SHT30;76291;48.288;16.314;2024-03-02T02:04:00;7.2;87.2
74742;SHT30;76291;48.288;16.314;2024-03-02T02:05:00;7.2;86.9
74742;SHT30;76291;48.288;16.314;2024-03-02T02:06:00;7.3;86.8
74742;SHT30;76291;48.288;16.314;2024-03-02T02:07:00;7.3;86.5
74742;SHT30;76291;48.288;16.314;2024-03-02T02:08:00;7.3;86.1
74742;SHT30;76291;48.288;16.314;2024-03-02T02:09:00;7.3;86.3
74742;SHT30;76291;48.288;16.314;2024-03-02T02:10:00;7.3;86.6
74742;SHT30;76291;48.288;16.314;2024-03-02T02:11:00;7.3;86.5
74742;SHT30;76291;48.288;16.314;2024-03-02T02:12:00;7.3;86.1
74742;SHT30;76291;48.288;16.314;2024-03-02T02:13:00;7.3;86.1
74742;SHT30;76291;48.288;16.314;2024-03-02T02:14:00;7.3;86.1
74742;SHT30;76291;48.288;16.314;2024-03-02T02:15:03;7.3;86.1
74742;SHT30;76291;48.288;16.314;2024-03-02T02:16:05;7.3;85.8
74742;SHT30;76291;48.288;16.314;2024-03-02T02:17:00;7.3;85.9
74742;SHT30;76291;48.288;16.314;2024-03-02T02:18:00;7.3;85.7
74742;SHT30;76291;48.288;16.314;2024-03-02T02:19:00;7.3;85.5
74742;SHT30;76291;48.288;16.314;2024-03-02T02:20:00;7.3;86.0
74742;SHT30;76291;48.288;16.314;2024-03-02T02:21:00;7.3;86.2
74742;SHT30;76291;48.288;16.314;2024-03-02T02:22:00;7.3;86.2
74742;SHT30;76291;48.288;16.314;2024-03-02T02:23:01;7.3;85.9
74742;SHT30;76291;48.288;16.314;2024-03-02T02:24:00;7.3;85.8
74742;SHT30;76291;48.288;16.314;2024-03-02T02:25:00;7.3;85.9
74742;SHT30;76291;48.288;16.314;2024-03-02T02:26:00;7.1;86.8
74742;SHT30;76291;48.288;16.314;2024-03-02T02:27:00;7.1;87.2
74742;SHT30;76291;48.288;16.314;2024-03-02T02:28:00;7.2;86.6
74742;SHT30;76291;48.288;16.314;2024-03-02T02:29:00;7.2;86.8
74742;SHT30;76291;48.288;16.314;2024-03-02T02:30:00;7.2;86.5
74742;SHT30;76291;48.288;16.314;2024-03-02T02:31:00;7.2;86.3
74742;SHT30;76291;48.288;16.314;2024-03-02T02:32:00;7.1;86.6
74742;SHT30;76291;48.288;16.314;2024-03-02T02:33:00;7.0;86.5
74742;SHT30;76291;48.288;16.314;2024-03-02T02:34:00;7.1;86.6
74742;SHT30;76291;48.288;16.314;2024-03-02T02:35:00;7.1;86.8
74742;SHT30;76291;48.288;16.314;2024-03-02T02:36:03;7.1;86.7
74742;SHT30;76291;48.288;16.314;2024-03-02T02:37:00;7.1;86.4
74742;SHT30;76291;48.288;16.314;2024-03-02T02:38:00;7.1;86.4
74742;SHT30;76291;48.288;16.314;2024-03-02T02:39:02;7.2;85.9
74742;SHT30;76291;48.288;16.314;2024-03-02T02:40:00;7.2;85.7
74742;SHT30;76291;48.288;16.314;2024-03-02T02:41:00;7.1;85.4
74742;SHT30;76291;48.288;16.314;2024-03-02T02:42:00;7.1;85.1
74742;SHT30;76291;48.288;16.314;2024-03-02T02:43:00;7.1;85.1
74742;SHT30;76291;48.288;16.314;2024-03-02T02:44:00;7.0;85.4
74742;SHT30;76291;48.288;16.314;2024-03-02T02:45:00;7.0;85.8
74742;SHT30;76291;48.288;16.314;2024-03-02T02:46:00;7.0;85.9
74742;SHT30;76291;48.288;16.314;2024-03-02T02:47:00;7.0;85.8
74742;SHT30;76291;48.288;16.314;2024-03-02T02:48:00;7.0;85.6
74742;SHT30;76291;48.288;16.314;2024-03-02T02:49:00;7.0;85.7
74742;SHT30;76291;48.288;16.314;2024-03-02T02:50:01;7.0;85.7
74742;SHT30;76291;48.288;16.314;2024-03-02T02:51:00;6.9;86.0
74742;SHT30;76291;48.288;16.314;2024-03-02T02:52:00;7.0;85.9
74742;SHT30;76291;48.288;16.314;2024-03-02T02:53:00;7.1;85.9
74742;SHT30;76291;48.288;16.314;2024-03-02T02:54:00;7.0;86.0
74742;SHT30;76291;48.288;16.314;2024-03-02T02:55:00;7.1;85.9
74742;SHT30;76291;48.288;16.314;2024-03-02T02:56:00;7.1;85.8
74742;SHT30;76291;48.288;16.314;2024-03-02T02:57:02;7.1;85.7
74742;SHT30;76291;48.288;16.314;2024-03-02T02:58:00;7.0;85.8
74742;SHT30;76291;48.288;16.314;2024-03-02T02:59:00;7.0;85.9
74742;SHT30;76291;48.288;16.314;2024-03-02T03:00:01;7.0;86.2
74742;SHT30;76291;48.288;16.314;2024-03-02T03:01:00;7.0;86.2
74742;SHT30;76291;48.288;16.314;2024-03-02T03:02:01;6.9;86.2
74742;SHT30;76291;48.288;16.314;2024-03-02T03:03:00;7.0;86.2
74742;SHT30;76291;48.288;16.314;2024-03-02T03:04:00;7.0;85.9
74742;SHT30;76291;48.288;16.314;2024-03-02T03:05:00;7.0;86.1
74742;SHT30;76291;48.288;16.314;2024-03-02T03:06:00;6.9;86.5
74742;SHT30;76291;48.288;16.314;2024-03-02T03:07:00;6.9;86.8
74742;SHT30;76291;48.288;16.314;2024-03-02T03:08:00;6.9;86.7
74742;SHT30;76291;48.288;16.314;2024-03-02T03:09:00;7.0;86.7
74742;SHT30;76291;48.288;16.314;2024-03-02T03:10:00;6.9;86.7
74742;SHT30;76291;48.288;16.314;2024-03-02T03:11:00;7.0;86.5
74742;SHT30;76291;48.288;16.314;2024-03-02T03:12:00;6.8;87.1
74742;SHT30;76291;48.288;16.314;2024-03-02T03:13:00;6.8;87.4
74742;SHT30;76291;48.288;16.314;2024-03-02T03:14:00;6.9;86.9
74742;SHT30;76291;48.288;16.314;2024-03-02T03:15:00;6.8;87.2
74742;SHT30;76291;48.288;16.314;2024-03-02T03:16:00;6.8;87.6
74742;SHT30;76291;48.288;16.314;2024-03-02T03:17:00;6.7;87.6
74742;SHT30;76291;48.288;16.314;2024-03-02T03:18:01;6.8;87.8
74742;SHT30;76291;48.288;16.314;2024-03-02T03:19:00;6.8;87.7
74742;SHT30;76291;48.288;16.314;2024-03-02T03:20:00;6.8;87.8
74742;SHT30;76291;48.288;16.314;2024-03-02T03:21:00;6.8;87.9
74742;SHT30;76291;48.288;16.314;2024-03-02T03:22:00;6.8;87.8
74742;SHT30;76291;48.288;16.314;2024-03-02T03:23:00;6.8;87.7
74742;SHT30;76291;48.288;16.314;2024-03-02T03:24:00;6.8;87.6
74742;SHT30;76291;48.288;16.314;2024-03-02T03:25:00;6.8;87.8
74742;SHT30;76291;48.288;16.314;2024-03-02T03:26:00;6.8;87.5
74742;SHT30;76291;48.288;16.314;2024-03-02T03:27:00;6.8;87.4
74742;SHT30;76291;48.288;16.314;2024-03-02T03:28:00;6.7;87.6
74742;SHT30;76291;48.288;16.314;2024-03-02T03:29:00;6.8;87.2
74742;SHT30;76291;48.288;16.314;2024-03-02T03:30:00;6.8;87.0
74742;SHT30;76291;48.288;16.314;2024-03-02T03:31:00;6.8;87.1
74742;SHT30;76291;48.288;16.314;2024-03-02T03:32:00;6.8;87.3
74742;SHT30;76291;48.288;16.314;2024-03-02T03:33:00;6.8;87.1
74742;SHT30;76291;48.288;16.314;2024-03-02T03:34:00;6.7;87.3
74742;SHT30;76291;48.288;16.314;2024-03-02T03:35:00;6.7;87.0
74742;SHT30;76291;48.288;16.314;2024-03-02T03:36:00;6.6;87.1
74742;SHT30;76291;48.288;16.314;2024-03-02T03:37:00;6.7;86.9
74742;SHT30;76291;48.288;16.314;2024-03-02T03:38:00;6.8;86.9
74742;SHT30;76291;48.288;16.314;2024-03-02T03:39:00;6.8;86.5
74742;SHT30;76291;48.288;16.314;2024-03-02T03:40:00;6.6;86.9
74742;SHT30;76291;48.288;16.314;2024-03-02T03:41:00;6.7;87.1
74742;SHT30;76291;48.288;16.314;2024-03-02T03:42:00;6.7;87.0
74742;SHT30;76291;48.288;16.314;2024-03-02T03:43:00;6.7;86.7
74742;SHT30;76291;48.288;16.314;2024-03-02T03:44:00;6.8;86.5
74742;SHT30;76291;48.288;16.314;2024-03-02T03:45:00;6.8;86.7
74742;SHT30;76291;48.288;16.314;2024-03-02T03:46:00;6.7;87.0
74742;SHT30;76291;48.288;16.314;2024-03-02T03:47:00;6.8;86.9
74742;SHT30;76291;48.288;16.314;2024-03-02T03:48:00;6.8;87.1
74742;SHT30;76291;48.288;16.314;2024-03-02T03:49:00;6.8;86.9
74742;SHT30;76291;48.288;16.314;2024-03-02T03:50:00;6.7;87.1
74742;SHT30;76291;48.288;16.314;2024-03-02T03:51:00;6.8;87.2
74742;SHT30;76291;48.288;16.314;2024-03-02T03:52:00;6.8;87.2
74742;SHT30;76291;48.288;16.314;2024-03-02T03:53:00;6.7;87.3
74742;SHT30;76291;48.288;16.314;2024-03-02T03:54:00;6.6;87.7
74742;SHT30;76291;48.288;16.314;2024-03-02T03:55:00;6.7;87.7
74742;SHT30;76291;48.288;16.314;2024-03-02T03:56:00;6.5;88.2
74742;SHT30;76291;48.288;16.314;2024-03-02T03:57:00;6.5;88.4
74742;SHT30;76291;48.288;16.314;2024-03-02T03:58:00;6.5;88.4
74742;SHT30;76291;48.288;16.314;2024-03-02T03:59:00;6.7;87.8
74742;SHT30;76291;48.288;16.314;2024-03-02T04:00:00;6.6;88.0
74742;SHT30;76291;48.288;16.314;2024-03-02T04:01:00;6.7;88.1
74742;SHT30;76291;48.288;16.314;2024-03-02T04:02:00;6.7;87.8
74742;SHT30;76291;48.288;16.314;2024-03-02T04:03:00;6.6;87.9
74742;SHT30;76291;48.288;16.314;2024-03-02T04:04:00;6.6;87.9
74742;SHT30;76291;48.288;16.314;2024-03-02T04:05:00;6.6;87.7
74742;SHT30;76291;48.288;16.314;2024-03-02T04:06:00;6.7;87.7
74742;SHT30;76291;48.288;16.314;2024-03-02T04:07:00;6.7;87.4
74742;SHT30;76291;48.288;16.314;2024-03-02T04:08:00;6.6;87.7
74742;SHT30;76291;48.288;16.314;2024-03-02T04:09:00;6.6;87.8
74742;SHT30;76291;48.288;16.314;2024-03-02T04:10:02;6.7;88.0
74742;SHT30;76291;48.288;16.314;2024-03-02T04:11:00;6.6;88.0
74742;SHT30;76291;48.288;16.314;2024-03-02T04:12:00;6.7;87.7
74742;SHT30;76291;48.288;16.314;2024-03-02T04:13:00;6.7;87.9
74742;SHT30;76291;48.288;16.314;2024-03-02T04:14:00;6.7;88.3
74742;SHT30;76291;48.288;16.314;2024-03-02T04:15:00;6.8;88.4
74742;SHT30;76291;48.288;16.314;2024-03-02T04:16:00;6.8;88.3
74742;SHT30;76291;48.288;16.314;2024-03-02T04:17:00;6.8;88.2
74742;SHT30;76291;48.288;16.314;2024-03-02T04:18:00;6.8;88.5
74742;SHT30;76291;48.288;16.314;2024-03-02T04:19:00;6.8;88.7
74742;SHT30;76291;48.288;16.314;2024-03-02T04:20:00;6.8;88.6
74742;SHT30;76291;48.288;16.314;2024-03-02T04:21:03;6.8;88.6
74742;SHT30;76291;48.288;16.314;2024-03-02T04:22:00;6.7;88.7
74742;SHT30;76291;48.288;16.314;2024-03-02T04:23:00;6.8;88.6
74742;SHT30;76291;48.288;16.314;2024-03-02T04:24:00;6.8;88.5
74742;SHT30;76291;48.288;16.314;2024-03-02T04:25:00;6.9;88.3
74742;SHT30;76291;48.288;16.314;2024-03-02T04:26:00;6.8;88.3
74742;SHT30;76291;48.288;16.314;2024-03-02T04:27:00;6.9;88.3
74742;SHT30;76291;48.288;16.314;2024-03-02T04:28:00;6.8;88.7
74742;SHT30;76291;48.288;16.314;2024-03-02T04:29:00;6.9;88.4
74742;SHT30;76291;48.288;16.314;2024-03-02T04:30:00;6.9;88.2
74742;SHT30;76291;48.288;16.314;2024-03-02T04:31:00;6.9;87.7
74742;SHT30;76291;48.288;16.314;2024-03-02T04:32:02;6.8;87.4
74742;SHT30;76291;48.288;16.314;2024-03-02T04:33:00;6.9;87.4
74742;SHT30;76291;48.288;16.314;2024-03-02T04:34:00;6.8;88.0
74742;SHT30;76291;48.288;16.314;2024-03-02T04:35:00;6.8;87.9
74742;SHT30;76291;48.288;16.314;2024-03-02T04:36:00;6.8;88.0
74742;SHT30;76291;48.288;16.314;2024-03-02T04:37:00;6.8;87.9
74742;SHT30;76291;48.288;16.314;2024-03-02T04:38:00;6.8;87.5
74742;SHT30;76291;48.288;16.314;2024-03-02T04:39:00;6.8;87.1
74742;SHT30;76291;48.288;16.314;2024-03-02T04:40:00;6.8;87.4
74742;SHT30;76291;48.288;16.314;2024-03-02T04:41:00;6.7;87.4
74742;SHT30;76291;48.288;16.314;2024-03-02T04:42:00;6.8;88.0
74742;SHT30;76291;48.288;16.314;2024-03-02T04:43:00;6.8;88.3
74742;SHT30;76291;48.288;16.314;2024-03-02T04:44:00;6.8;88.4
74742;SHT30;76291;48.288;16.314;2024-03-02T04:45:00;6.8;88.4
74742;SHT30;76291;48.288;16.314;2024-03-02T04:46:00;6.8;88.3
74742;SHT30;76291;48.288;16.314;2024-03-02T04:47:00;6.9;88.1
74742;SHT30;76291;48.288;16.314;2024-03-02T04:48:00;6.9;88.2
74742;SHT30;76291;48.288;16.314;2024-03-02T04:49:00;6.9;88.3
74742;SHT30;76291;48.288;16.314;2024-03-02T04:50:00;6.9;88.2
74742;SHT30;76291;48.288;16.314;2024-03-02T04:51:00;6.9;88.0
74742;SHT30;76291;48.288;16.314;2024-03-02T04:52:00;7.0;87.9
74742;SHT30;76291;48.288;16.314;2024-03-02T04:53:00;7.0;87.9
74742;SHT30;76291;48.288;16.314;2024-03-02T04:54:00;7.0;87.7
74742;SHT30;76291;48.288;16.314;2024-03-02T04:55:00;7.0;87.8
74742;SHT30;76291;48.288;16.314;2024-03-02T04:56:00;7.0;87.5
74742;SHT30;76291;48.288;16.314;2024-03-02T04:57:00;7.0;87.5
74742;SHT30;76291;48.288;16.314;2024-03-02T04:58:00;7.0;87.4
74742;SHT30;76291;48.288;16.314;2024-03-02T04:59:00;7.0;87.4
74742;SHT30;76291;48.288;16.314;2024-03-02T05:00:00;7.0;87.4
74742;SHT30;76291;48.288;16.314;2024-03-02T05:01:00;7.0;87.5
74742;SHT30;76291;48.288;16.314;2024-03-02T05:02:00;7.0;87.6
74742;SHT30;76291;48.288;16.314;2024-03-02T05:03:00;7.0;87.4
74742;SHT30;76291;48.288;16.314;2024-03-02T05:04:00;7.0;87.4
74742;SHT30;76291;48.288;16.314;2024-03-02T05:05:03;7.0;86.9
74742;SHT30;76291;48.288;16.314;2024-03-02T05:06:00;7.0;85.9
74742;SHT30;76291;48.288;16.314;2024-03-02T05:07:00;6.9;85.5
74742;SHT30;76291;48.288;16.314;2024-03-02T05:08:00;6.7;85.9
74742;SHT30;76291;48.288;16.314;2024-03-02T05:09:00;6.7;86.1
74742;SHT30;76291;48.288;16.314;2024-03-02T05:10:00;6.7;85.9
74742;SHT30;76291;48.288;16.314;2024-03-02T05:11:00;6.6;85.9
74742;SHT30;76291;48.288;16.314;2024-03-02T05:12:00;6.6;85.4
74742;SHT30;76291;48.288;16.314;2024-03-02T05:13:00;6.6;85.7
74742;SHT30;76291;48.288;16.314;2024-03-02T05:14:00;6.4;86.0
74742;SHT30;76291;48.288;16.314;2024-03-02T05:15:00;6.3;86.5
74742;SHT30;76291;48.288;16.314;2024-03-02T05:16:00;6.2;86.5
74742;SHT30;76291;48.288;16.314;2024-03-02T05:17:00;6.2;86.6
74742;SHT30;76291;48.288;16.314;2024-03-02T05:18:00;6.2;86.3
74742;SHT30;76291;48.288;16.314;2024-03-02T05:19:00;6.2;86.5
74742;SHT30;76291;48.288;16.314;2024-03-02T05:20:00;6.1;87.0
74742;SHT30;76291;48.288;16.314;2024-03-02T05:21:00;6.1;87.1
74742;SHT30;76291;48.288;16.314;2024-03-02T05:22:00;6.2;86.6
74742;SHT30;76291;48.288;16.314;2024-03-02T05:23:00;6.1;86.8
74742;SHT30;76291;48.288;16.314;2024-03-02T05:24:00;6.1;86.4
74742;SHT30;76291;48.288;16.314;2024-03-02T05:25:00;6.2;86.5
74742;SHT30;76291;48.288;16.314;2024-03-02T05:26:00;6.2;86.6
74742;SHT30;76291;48.288;16.314;2024-03-02T05:27:00;6.1;86.2
74742;SHT30;76291;48.288;16.314;2024-03-02T05:28:00;6.2;86.3
74742;SHT30;76291;48.288;16.314;2024-03-02T05:29:00;6.2;86.1
74742;SHT30;76291;48.288;16.314;2024-03-02T05:30:00;6.1;86.4
74742;SHT30;76291;48.288;16.314;2024-03-02T05:31:00;6.0;86.9
74742;SHT30;76291;48.288;16.314;2024-03-02T05:32:00;6.0;87.2
74742;SHT30;76291;48.288;16.314;2024-03-02T05:33:03;6.1;86.9
74742;SHT30;76291;48.288;16.314;2024-03-02T05:34:00;6.1;86.9
74742;SHT30;76291;48.288;16.314;2024-03-02T05:35:00;6.0;87.0
74742;SHT30;76291;48.288;16.314;2024-03-02T05:36:00;6.0;86.9
74742;SHT30;76291;48.288;16.314;2024-03-02T05:37:00;6.0;86.9
74742;SHT30;76291;48.288;16.314;2024-03-02T05:38:00;6.1;86.6
74742;SHT30;76291;48.288;16.314;2024-03-02T05:39:00;6.1;86.5
74742;SHT30;76291;48.288;16.314;2024-03-02T05:40:00;6.0;87.3
74742;SHT30;76291;48.288;16.314;2024-03-02T05:41:00;6.0;87.4
74742;SHT30;76291;48.288;16.314;2024-03-02T05:42:00;6.2;86.9
74742;SHT30;76291;48.288;16.314;2024-03-02T05:43:02;6.1;87.0
74742;SHT30;76291;48.288;16.314;2024-03-02T05:44:00;6.1;87.4
74742;SHT30;76291;48.288;16.314;2024-03-02T05:45:00;6.1;87.1
74742;SHT30;76291;48.288;16.314;2024-03-02T05:46:00;6.1;86.9
74742;SHT30;76291;48.288;16.314;2024-03-02T05:47:00;6.1;87.4
74742;SHT30;76291;48.288;16.314;2024-03-02T05:48:00;6.1;87.4
74742;SHT30;76291;48.288;16.314;2024-03-02T05:49:00;6.1;87.7
74742;SHT30;76291;48.288;16.314;2024-03-02T05:50:00;6.1;87.7
74742;SHT30;76291;48.288;16.314;2024-03-02T05:51:00;6.1;87.4
74742;SHT30;76291;48.288;16.314;2024-03-02T05:52:00;6.0;87.9
74742;SHT30;76291;48.288;16.314;2024-03-02T05:53:00;6.0;87.8
74742;SHT30;76291;48.288;16.314;2024-03-02T05:54:01;6.1;87.7
74742;SHT30;76291;48.288;16.314;2024-03-02T05:55:00;6.1;87.7
74742;SHT30;76291;48.288;16.314;2024-03-02T05:56:00;6.1;88.0
74742;SHT30;76291;48.288;16.314;2024-03-02T05:57:00;6.1;88.0
74742;SHT30;76291;48.288;16.314;2024-03-02T05:58:00;6.0;88.0
74742;SHT30;76291;48.288;16.314;2024-03-02T05:59:00;6.1;88.2
74742;SHT30;76291;48.288;16.314;2024-03-02T06:00:00;6.1;88.3
74742;SHT30;76291;48.288;16.314;2024-03-02T06:01:00;6.1;88.3
74742;SHT30;76291;48.288;16.314;2024-03-02T06:02:00;6.2;88.0
74742;SHT30;76291;48.288;16.314;2024-03-02T06:03:00;6.3;88.0
74742;SHT30;76291;48.288;16.314;2024-03-02T06:04:00;6.2;88.0
74742;SHT30;76291;48.288;16.314;2024-03-02T06:05:00;6.2;88.4
74742;SHT30;76291;48.288;16.314;2024-03-02T06:06:00;6.2;88.5
74742;SHT30;76291;48.288;16.314;2024-03-02T06:07:00;6.2;88.3
74742;SHT30;76291;48.288;16.314;2024-03-02T06:08:00;6.2;88.2
74742;SHT30;76291;48.288;16.314;2024-03-02T06:09:01;6.1;88.2
74742;SHT30;76291;48.288;16.314;2024-03-02T06:10:00;6.1;88.3
74742;SHT30;76291;48.288;16.314;2024-03-02T06:11:00;6.1;88.3
74742;SHT30;76291;48.288;16.314;2024-03-02T06:12:00;6.2;88.2
74742;SHT30;76291;48.288;16.314;2024-03-02T06:13:00;6.2;87.8
74742;SHT30;76291;48.288;16.314;2024-03-02T06:14:00;6.2;88.1
74742;SHT30;76291;48.288;16.314;2024-03-02T06:15:00;6.3;88.2
74742;SHT30;76291;48.288;16.314;2024-03-02T06:16:00;6.3;88.2
74742;SHT30;76291;48.288;16.314;2024-03-02T06:17:00;6.3;88.0
74742;SHT30;76291;48.288;16.314;2024-03-02T06:18:00;6.3;88.1
74742;SHT30;76291;48.288;16.314;2024-03-02T06:19:00;6.3;88.3
74742;SHT30;76291;48.288;16.314;2024-03-02T06:20:00;6.4;88.4
74742;SHT30;76291;48.288;16.314;2024-03-02T06:21:00;6.4;88.4
74742;SHT30;76291;48.288;16.314;2024-03-02T06:22:00;6.4;88.4
74742;SHT30;76291;48.288;16.314;2024-03-02T06:23:00;6.5;88.3
74742;SHT30;76291;48.288;16.314;2024-03-02T06:24:00;6.5;88.3
74742;SHT30;76291;48.288;16.314;2024-03-02T06:25:00;6.6;88.3
74742;SHT30;76291;48.288;16.314;2024-03-02T06:26:00;6.6;88.2
74742;SHT30;76291;48.288;16.314;2024-03-02T06:27:00;6.7;87.9
74742;SHT30;76291;48.288;16.314;2024-03-02T06:28:00;6.6;87.8
74742;SHT30;76291;48.288;16.314;2024-03-02T06:29:00;6.7;87.7
74742;SHT30;76291;48.288;16.314;2024-03-02T06:30:00;6.7;87.9
74742;SHT30;76291;48.288;16.314;2024-03-02T06:31:01;6.8;87.7
74742;SHT30;76291;48.288;16.314;2024-03-02T06:32:00;6.7;88.0
74742;SHT30;76291;48.288;16.314;2024-03-02T06:33:00;6.7;87.7
74742;SHT30;76291;48.288;16.314;2024-03-02T06:34:00;6.7;87.5